createdAt,value
2023-09-07T00:01:15.579Z,18.61
2023-09-07T00:03:43.885Z,18.62
2023-09-07T00:06:12.020Z,18.60
2023-09-07T00:08:39.986Z,18.72
2023-09-07T00:11:08.640Z,18.71
2023-09-07T00:13:37.436Z,18.58
2023-09-07T00:16:07.042Z,18.63
2023-09-07T00:18:35.467Z,18.70
2023-09-07T00:21:04.068Z,18.68
2023-09-07T00:23:32.229Z,18.71
2023-09-07T00:26:00.206Z,18.80
2023-09-07T00:28:28.209Z,18.82
2023-09-07T00:30:56.734Z,18.82
2023-09-07T00:33:24.980Z,18.84
2023-09-07T00:35:53.112Z,18.87
2023-09-07T00:38:21.130Z,18.87
2023-09-07T00:40:49.123Z,18.88
2023-09-07T00:43:17.225Z,18.87
2023-09-07T00:45:45.378Z,18.84
2023-09-07T00:48:17.469Z,18.86
2023-09-07T00:50:46.298Z,18.86
2023-09-07T00:53:15.743Z,18.85
2023-09-07T00:55:46.892Z,18.80
2023-09-07T00:58:15.191Z,18.75
2023-09-07T01:00:43.970Z,18.65
2023-09-07T01:03:12.118Z,18.44
2023-09-07T01:05:51.420Z,18.46
2023-09-07T01:08:27.893Z,18.53
2023-09-07T01:10:56.148Z,18.36
2023-09-07T01:13:24.251Z,18.50
2023-09-07T01:15:53.613Z,18.54
2023-09-07T01:18:25.249Z,18.60
2023-09-07T01:20:55.838Z,18.65
2023-09-07T01:23:24.906Z,18.65
2023-09-07T01:25:54.885Z,18.68
2023-09-07T01:28:23.262Z,18.62
2023-09-07T01:30:53.603Z,18.43
2023-09-07T01:33:21.701Z,18.47
2023-09-07T01:35:49.808Z,18.54
2023-09-07T01:38:18.138Z,18.54
2023-09-07T01:40:46.344Z,18.57
2023-09-07T01:43:15.004Z,18.56
2023-09-07T01:45:43.030Z,18.53
2023-09-07T01:48:15.437Z,18.63
2023-09-07T01:50:43.846Z,18.63
2023-09-07T01:53:12.004Z,18.57
2023-09-07T01:55:40.248Z,18.65
2023-09-07T01:58:08.369Z,18.60
2023-09-07T02:00:42.648Z,18.51
2023-09-07T02:03:11.990Z,18.45
2023-09-07T02:05:40.911Z,18.51
2023-09-07T02:08:08.967Z,18.56
2023-09-07T02:10:37.201Z,18.55
2023-09-07T02:13:05.430Z,18.33
2023-09-07T02:15:33.454Z,18.59
2023-09-07T02:18:01.467Z,18.60
2023-09-07T02:20:29.640Z,18.61
2023-09-07T02:22:57.844Z,18.62
2023-09-07T02:25:25.945Z,18.54
2023-09-07T02:27:53.895Z,18.68
2023-09-07T02:30:22.191Z,18.55
2023-09-07T02:32:50.314Z,18.53
2023-09-07T02:35:18.564Z,18.52
2023-09-07T02:37:47.000Z,18.52
2023-09-07T02:40:17.180Z,18.54
2023-09-07T02:42:45.223Z,18.57
2023-09-07T02:45:13.683Z,18.57
2023-09-07T02:49:17.279Z,18.55
2023-09-07T02:51:46.215Z,18.48
2023-09-07T02:54:14.053Z,18.27
2023-09-07T02:56:41.926Z,18.44
2023-09-07T02:59:10.281Z,18.42
2023-09-07T03:01:40.755Z,18.45
2023-09-07T03:04:08.971Z,18.51
2023-09-07T03:06:38.264Z,18.50
2023-09-07T03:09:10.247Z,18.51
2023-09-07T03:11:40.000Z,18.52
2023-09-07T03:14:58.088Z,18.51
2023-09-07T03:17:27.132Z,18.47
2023-09-07T03:19:55.623Z,18.48
2023-09-07T03:22:26.924Z,18.47
2023-09-07T03:24:55.113Z,18.45
2023-09-07T03:27:23.202Z,18.48
2023-09-07T03:29:53.186Z,18.48
2023-09-07T03:32:22.720Z,18.40
2023-09-07T03:34:50.816Z,18.38
2023-09-07T03:37:18.776Z,18.29
2023-09-07T03:39:46.749Z,18.16
2023-09-07T03:42:15.032Z,18.14
2023-09-07T03:44:43.362Z,18.16
2023-09-07T03:47:12.674Z,18.16
2023-09-07T03:49:40.799Z,18.23
2023-09-07T03:52:09.148Z,18.24
2023-09-07T03:54:37.234Z,18.24
2023-09-07T03:57:05.642Z,18.26
2023-09-07T03:59:33.706Z,18.26
2023-09-07T04:02:02.511Z,18.01
2023-09-07T04:04:30.858Z,18.04
2023-09-07T04:06:58.940Z,18.11
2023-09-07T04:09:27.009Z,18.16
2023-09-07T04:11:55.198Z,18.07
2023-09-07T04:14:23.237Z,18.09
2023-09-07T04:16:52.707Z,18.16
2023-09-07T04:19:23.161Z,18.17
2023-09-07T04:21:52.941Z,18.22
2023-09-07T04:24:21.226Z,18.17
2023-09-07T04:26:50.359Z,18.22
2023-09-07T04:29:18.772Z,18.24
2023-09-07T04:31:46.878Z,18.27
2023-09-07T04:34:14.848Z,18.29
2023-09-07T04:36:42.926Z,18.29
2023-09-07T04:39:12.020Z,18.32
2023-09-07T04:41:40.001Z,18.27
2023-09-07T04:44:08.104Z,18.35
2023-09-07T04:46:36.195Z,18.31
2023-09-07T04:49:04.502Z,18.32
2023-09-07T04:51:33.185Z,18.29
2023-09-07T04:54:01.506Z,18.28
2023-09-07T04:56:30.544Z,18.32
2023-09-07T04:59:45.878Z,18.38
2023-09-07T05:02:47.479Z,18.41
2023-09-07T05:05:15.577Z,18.41
2023-09-07T05:07:43.739Z,18.47
2023-09-07T05:10:13.830Z,18.46
2023-09-07T05:12:42.744Z,18.51
2023-09-07T05:15:11.335Z,18.52
2023-09-07T05:17:39.734Z,18.59
2023-09-07T05:20:10.415Z,18.66
2023-09-07T05:23:11.081Z,18.74
2023-09-07T05:25:48.918Z,18.81
2023-09-07T05:28:18.079Z,18.88
2023-09-07T05:30:46.540Z,18.94
2023-09-07T05:33:15.770Z,19.06
2023-09-07T05:35:45.647Z,19.13
2023-09-07T05:38:15.128Z,19.27
2023-09-07T05:40:46.006Z,19.38
2023-09-07T05:43:14.778Z,19.48
2023-09-07T05:45:43.119Z,19.53
2023-09-07T05:48:13.196Z,19.62
2023-09-07T05:50:42.146Z,19.70
2023-09-07T05:53:10.164Z,19.67
2023-09-07T05:55:39.019Z,19.74
2023-09-07T05:58:09.422Z,19.64
2023-09-07T06:00:42.222Z,19.73
2023-09-07T06:03:10.892Z,19.81
2023-09-07T06:05:40.886Z,19.78
2023-09-07T06:08:11.525Z,19.78
2023-09-07T06:10:39.991Z,19.94
2023-09-07T06:13:09.856Z,20.11
2023-09-07T06:15:38.129Z,20.28
2023-09-07T06:18:06.443Z,20.85
2023-09-07T06:20:36.772Z,21.78
2023-09-07T06:23:05.594Z,22.89
2023-09-07T06:25:34.264Z,24.63
2023-09-07T06:28:03.375Z,26.53
2023-09-07T06:30:31.564Z,28.21
2023-09-07T06:33:01.263Z,29.14
2023-09-07T06:35:29.552Z,28.57
2023-09-07T06:37:57.773Z,28.26
2023-09-07T06:40:27.795Z,27.47
2023-09-07T06:42:58.605Z,27.61
2023-09-07T06:45:28.491Z,28.08
2023-09-07T06:47:56.671Z,27.93
2023-09-07T06:50:27.323Z,27.76
2023-09-07T06:52:55.858Z,27.66
2023-09-07T06:55:24.698Z,28.04
2023-09-07T06:57:55.762Z,27.59
2023-09-07T07:00:24.358Z,26.23
2023-09-07T07:02:52.542Z,25.92
2023-09-07T07:05:22.237Z,25.30
2023-09-07T07:07:50.590Z,24.53
2023-09-07T07:10:19.165Z,24.37
2023-09-07T07:12:47.244Z,23.98
2023-09-07T07:15:15.652Z,23.89
2023-09-07T07:17:44.248Z,23.86
2023-09-07T07:20:12.262Z,23.77
2023-09-07T07:22:40.643Z,23.18
2023-09-07T07:25:09.482Z,23.19
2023-09-07T07:27:37.936Z,23.29
2023-09-07T07:30:06.578Z,23.37
2023-09-07T07:32:34.787Z,23.56
2023-09-07T07:35:02.940Z,23.58
2023-09-07T07:37:30.909Z,23.84
2023-09-07T07:39:59.769Z,23.94
2023-09-07T07:42:27.883Z,23.83
2023-09-07T07:44:56.159Z,24.17
2023-09-07T07:47:24.331Z,24.72
2023-09-07T07:49:52.417Z,25.25
2023-09-07T07:52:20.515Z,25.31
2023-09-07T07:54:48.564Z,24.88
2023-09-07T07:57:16.756Z,24.25
2023-09-07T07:59:44.976Z,23.90
2023-09-07T08:02:13.444Z,23.44
2023-09-07T08:04:43.173Z,23.72
2023-09-07T08:07:13.061Z,23.71
2023-09-07T08:09:41.917Z,23.70
2023-09-07T08:12:10.576Z,23.76
2023-09-07T08:14:38.959Z,23.84
2023-09-07T08:17:07.167Z,23.97
2023-09-07T08:19:35.284Z,23.98
2023-09-07T08:22:05.150Z,23.39
2023-09-07T08:24:34.546Z,23.21
2023-09-07T08:27:03.986Z,23.40
2023-09-07T08:29:34.165Z,23.54
2023-09-07T08:32:05.561Z,23.64
2023-09-07T08:34:33.837Z,23.26
2023-09-07T08:37:02.031Z,22.93
2023-09-07T08:39:30.035Z,22.60
2023-09-07T08:42:02.268Z,22.56
2023-09-07T08:44:31.780Z,22.84
2023-09-07T08:47:01.628Z,23.12
2023-09-07T08:49:29.913Z,23.27
2023-09-07T08:52:02.346Z,23.35
2023-09-07T08:54:31.656Z,23.63
2023-09-07T08:57:03.019Z,23.55
2023-09-07T08:59:31.708Z,23.30
2023-09-07T09:01:59.969Z,23.60
2023-09-07T09:04:29.760Z,23.63
2023-09-07T09:06:58.947Z,23.47
2023-09-07T09:09:27.014Z,23.17
2023-09-07T09:11:55.165Z,23.03
2023-09-07T09:14:23.974Z,22.80
2023-09-07T09:16:53.274Z,22.74
2023-09-07T09:19:34.460Z,22.88
2023-09-07T09:22:05.232Z,22.81
2023-09-07T09:24:35.687Z,22.68
2023-09-07T09:27:05.650Z,22.73
2023-09-07T09:29:35.705Z,22.67
2023-09-07T09:32:08.270Z,22.68
2023-09-07T09:34:37.727Z,22.73
2023-09-07T09:37:06.070Z,23.03
2023-09-07T09:39:35.329Z,23.24
2023-09-07T09:42:04.141Z,23.39
2023-09-07T09:44:33.821Z,23.22
2023-09-07T09:47:05.240Z,23.21
2023-09-07T09:53:08.673Z,23.44
2023-09-07T09:55:36.931Z,23.41
2023-09-07T09:58:05.234Z,23.69
2023-09-07T10:00:39.435Z,23.39
2023-09-07T10:03:15.658Z,23.36
2023-09-07T10:05:47.712Z,23.11
2023-09-07T10:08:18.861Z,23.12
2023-09-07T10:10:54.726Z,23.02
2023-09-07T10:13:35.045Z,23.26
2023-09-07T10:16:21.970Z,23.23
2023-09-07T10:18:56.525Z,23.47
2023-09-07T10:21:30.119Z,23.72
2023-09-07T10:23:58.081Z,23.78
2023-09-07T10:26:26.300Z,23.57
2023-09-07T10:29:02.123Z,23.61
2023-09-07T10:31:44.138Z,23.53
2023-09-07T10:34:40.724Z,23.47
2023-09-07T10:37:30.325Z,23.54
2023-09-07T10:39:59.339Z,23.56
2023-09-07T10:42:27.825Z,23.48
2023-09-07T10:44:55.951Z,23.49
2023-09-07T10:47:24.173Z,23.43
2023-09-07T10:49:52.395Z,23.35
2023-09-07T10:52:21.012Z,23.32
2023-09-07T10:54:59.060Z,23.11
2023-09-07T10:57:28.180Z,23.05
2023-09-07T10:59:56.785Z,23.01
2023-09-07T11:02:25.488Z,22.90
2023-09-07T11:04:54.410Z,22.84
2023-09-07T11:07:23.449Z,22.77
2023-09-07T11:09:56.826Z,22.84
2023-09-07T11:12:25.502Z,22.92
2023-09-07T11:14:55.590Z,22.79
2023-09-07T11:17:30.144Z,22.77
2023-09-07T11:19:58.642Z,22.73
2023-09-07T11:22:26.723Z,22.67
2023-09-07T11:24:55.029Z,22.82
2023-09-07T11:27:23.501Z,22.91
2023-09-07T11:29:54.643Z,22.95
2023-09-07T11:32:23.564Z,22.94
2023-09-07T11:34:55.871Z,22.95
2023-09-07T11:37:27.578Z,22.85
2023-09-07T11:39:56.519Z,22.79
2023-09-07T11:42:25.403Z,22.79
2023-09-07T11:44:53.926Z,22.67
2023-09-07T11:47:22.458Z,22.88
2023-09-07T11:49:52.675Z,22.97
2023-09-07T11:52:21.555Z,22.97
2023-09-07T11:54:50.938Z,22.97
2023-09-07T11:57:19.681Z,22.80
2023-09-07T11:59:58.483Z,22.89
2023-09-07T12:02:28.882Z,23.12
2023-09-07T12:04:57.425Z,23.19
2023-09-07T12:07:26.712Z,23.32
2023-09-07T12:09:57.672Z,23.27
2023-09-07T12:12:25.701Z,23.32
2023-09-07T12:14:54.250Z,23.31
2023-09-07T12:17:23.060Z,23.54
2023-09-07T12:19:52.463Z,23.60
2023-09-07T12:22:21.004Z,23.81
2023-09-07T12:25:02.195Z,23.68
2023-09-07T12:27:51.584Z,23.61
2023-09-07T12:30:24.211Z,23.59
2023-09-07T12:32:53.924Z,23.65
2023-09-07T12:35:22.853Z,23.56
2023-09-07T12:38:13.853Z,23.68
2023-09-07T12:40:57.736Z,23.69
2023-09-07T12:43:26.524Z,23.77
2023-09-07T12:45:54.995Z,23.81
2023-09-07T12:48:23.038Z,23.71
2023-09-07T12:50:51.576Z,23.74
2023-09-07T12:53:21.085Z,23.48
2023-09-07T12:55:49.796Z,23.67
2023-09-07T12:58:18.205Z,23.56
2023-09-07T13:00:49.890Z,23.60
2023-09-07T13:03:18.660Z,23.64
2023-09-07T13:05:47.227Z,23.61
2023-09-07T13:08:15.673Z,23.64
2023-09-07T13:10:44.061Z,23.33
2023-09-07T13:13:15.212Z,23.36
2023-09-07T13:15:43.523Z,23.32
2023-09-07T13:18:12.544Z,23.28
2023-09-07T13:20:51.024Z,23.15
2023-09-07T13:23:35.217Z,23.20
2023-09-07T13:26:03.666Z,23.37
2023-09-07T13:28:33.261Z,23.39
2023-09-07T13:31:02.140Z,23.30
2023-09-07T13:33:31.518Z,23.25
2023-09-07T13:36:00.302Z,23.29
2023-09-07T13:38:29.094Z,23.20
2023-09-07T13:40:57.633Z,22.90
2023-09-07T13:43:26.136Z,22.74
2023-09-07T13:45:55.165Z,22.66
2023-09-07T13:48:23.840Z,22.63
2023-09-07T13:50:52.305Z,22.41
2023-09-07T13:53:20.905Z,22.39
2023-09-07T13:55:50.520Z,22.31
2023-09-07T13:58:18.862Z,22.24
2023-09-07T14:00:48.536Z,22.24
2023-09-07T14:03:17.380Z,22.24
2023-09-07T14:05:46.632Z,22.33
2023-09-07T14:08:15.210Z,22.42
2023-09-07T14:10:43.411Z,22.62
2023-09-07T14:13:11.594Z,22.66
2023-09-07T14:15:39.944Z,22.71
2023-09-07T14:18:09.458Z,22.66
2023-09-07T14:20:37.900Z,22.75
2023-09-07T14:23:11.165Z,22.71
2023-09-07T14:25:43.422Z,22.72
2023-09-07T14:28:12.838Z,22.79
2023-09-07T14:30:41.396Z,22.90
2023-09-07T14:33:09.967Z,22.86
2023-09-07T14:35:38.808Z,22.93
2023-09-07T14:38:07.410Z,23.03
2023-09-07T14:40:36.259Z,22.98
2023-09-07T14:43:07.362Z,23.13
2023-09-07T14:45:36.055Z,22.86
2023-09-07T14:48:04.994Z,22.85
2023-09-07T14:50:33.776Z,22.91
2023-09-07T14:53:02.477Z,22.86
2023-09-07T14:55:31.552Z,22.89
2023-09-07T14:58:00.485Z,22.91
2023-09-07T15:00:33.521Z,23.01
2023-09-07T15:03:01.667Z,22.93
2023-09-07T15:05:30.733Z,23.00
2023-09-07T15:07:58.906Z,23.09
2023-09-07T15:10:27.740Z,23.18
2023-09-07T15:12:56.052Z,23.19
2023-09-07T15:15:24.235Z,23.06
2023-09-07T15:17:52.401Z,22.91
2023-09-07T15:20:20.710Z,22.99
2023-09-07T15:22:48.724Z,23.02
2023-09-07T15:25:16.724Z,23.07
2023-09-07T15:27:48.321Z,23.07
2023-09-07T15:30:16.845Z,23.08
2023-09-07T15:32:45.318Z,23.10
2023-09-07T15:35:13.802Z,22.94
2023-09-07T15:37:43.006Z,22.85
2023-09-07T15:40:13.665Z,22.73
2023-09-07T15:42:41.848Z,22.70
2023-09-07T15:45:10.325Z,22.67
2023-09-07T15:47:38.743Z,22.63
2023-09-07T15:50:08.805Z,22.62
2023-09-07T15:52:47.966Z,22.48
2023-09-07T15:55:17.256Z,22.57
2023-09-07T15:57:46.011Z,22.41
2023-09-07T16:00:14.585Z,22.37
2023-09-07T16:02:43.246Z,22.30
2023-09-07T16:05:11.399Z,22.29
2023-09-07T16:07:39.466Z,22.33
2023-09-07T16:10:08.016Z,22.29
2023-09-07T16:12:36.078Z,22.22
2023-09-07T16:15:04.785Z,22.21
2023-09-07T16:17:32.851Z,22.20
2023-09-07T16:20:01.009Z,22.14
2023-09-07T16:22:29.315Z,22.11
2023-09-07T16:24:58.822Z,22.09
2023-09-07T16:27:26.931Z,22.10
2023-09-07T16:29:54.845Z,22.10
2023-09-07T16:32:22.940Z,22.08
2023-09-07T16:34:51.037Z,22.08
2023-09-07T16:37:19.210Z,21.95
2023-09-07T16:39:50.581Z,21.98
2023-09-07T16:42:21.498Z,21.91
2023-09-07T16:44:54.463Z,21.94
2023-09-07T16:47:22.738Z,21.58
2023-09-07T16:49:50.993Z,21.58
2023-09-07T16:52:19.117Z,21.62
2023-09-07T16:54:47.879Z,21.62
2023-09-07T16:57:15.935Z,21.61
2023-09-07T17:02:14.975Z,21.55
2023-09-07T17:04:43.050Z,21.37
2023-09-07T17:07:11.141Z,21.50
2023-09-07T17:09:39.381Z,21.50
2023-09-07T17:12:07.750Z,21.46
2023-09-07T17:14:35.920Z,21.40
2023-09-07T17:17:04.210Z,21.34
2023-09-07T17:19:32.238Z,21.18
2023-09-07T17:22:02.128Z,21.22
2023-09-07T17:24:30.349Z,21.26
2023-09-07T17:26:58.477Z,21.19
2023-09-07T17:29:26.637Z,21.20
2023-09-07T17:31:54.733Z,21.18
2023-09-07T17:34:25.365Z,21.09
2023-09-07T17:36:53.489Z,20.93
2023-09-07T17:39:21.532Z,21.01
2023-09-07T17:41:49.767Z,21.04
2023-09-07T17:44:17.913Z,20.97
2023-09-07T17:46:48.142Z,21.04
2023-09-07T17:49:17.866Z,20.97
2023-09-07T17:51:45.954Z,20.98
2023-09-07T17:54:14.007Z,20.91
2023-09-07T17:56:43.130Z,20.92
2023-09-07T17:59:11.265Z,20.97
2023-09-07T18:01:39.222Z,20.88
2023-09-07T18:04:07.504Z,20.83
2023-09-07T18:06:35.761Z,20.75
2023-09-07T18:09:03.944Z,20.72
2023-09-07T18:11:32.005Z,20.68
2023-09-07T18:14:12.304Z,20.70
2023-09-07T18:16:43.852Z,20.70
2023-09-07T18:19:12.604Z,20.66
2023-09-07T18:21:40.889Z,20.69
2023-09-07T18:24:09.057Z,20.62
2023-09-07T18:26:37.346Z,20.66
2023-09-07T18:29:05.538Z,20.59
2023-09-07T18:31:33.969Z,20.57
2023-09-07T18:34:04.318Z,20.56
2023-09-07T18:36:34.035Z,20.57
2023-09-07T18:39:03.201Z,20.43
2023-09-07T18:41:31.388Z,20.47
2023-09-07T18:43:59.440Z,20.51
2023-09-07T18:46:27.478Z,20.47
2023-09-07T18:48:55.667Z,20.48
2023-09-07T18:51:23.647Z,20.47
2023-09-07T18:53:51.677Z,20.46
2023-09-07T18:56:19.933Z,20.43
2023-09-07T18:58:48.007Z,20.31
2023-09-07T19:01:18.050Z,20.08
2023-09-07T19:03:48.372Z,20.05
2023-09-07T19:06:16.832Z,20.08
2023-09-07T19:08:45.130Z,19.67
2023-09-07T19:11:16.540Z,19.62
2023-09-07T19:13:44.799Z,19.78
2023-09-07T19:16:17.742Z,19.88
2023-09-07T19:18:45.988Z,19.89
2023-09-07T19:21:24.772Z,19.86
2023-09-07T19:23:53.677Z,19.99
2023-09-07T19:26:39.288Z,20.04
2023-09-07T19:29:09.907Z,20.07
2023-09-07T19:31:39.598Z,20.05
2023-09-07T19:34:09.378Z,20.02
2023-09-07T19:36:38.605Z,20.02
2023-09-07T19:39:07.752Z,19.95
2023-09-07T19:41:36.339Z,19.89
2023-09-07T19:44:04.871Z,19.94
2023-09-07T19:46:32.987Z,20.00
2023-09-07T19:49:01.566Z,20.02
2023-09-07T19:51:29.779Z,20.03
2023-09-07T19:53:58.050Z,19.99
2023-09-07T19:56:28.026Z,19.91
2023-09-07T19:58:56.868Z,19.99
2023-09-07T20:01:25.353Z,19.90
2023-09-07T20:03:56.685Z,19.99
2023-09-07T20:06:25.748Z,19.85
2023-09-07T20:08:54.498Z,19.79
2023-09-07T20:11:22.627Z,19.55
2023-09-07T20:13:50.642Z,19.58
2023-09-07T20:16:19.069Z,19.41
2023-09-07T20:18:48.227Z,19.49
2023-09-07T20:21:16.397Z,19.30
2023-09-07T20:23:44.520Z,19.27
2023-09-07T20:26:12.397Z,19.35
2023-09-07T20:28:42.666Z,19.23
2023-09-07T20:31:10.919Z,19.33
2023-09-07T20:33:39.254Z,19.45
2023-09-07T20:36:08.531Z,19.48
2023-09-07T20:38:37.729Z,19.45
2023-09-07T20:41:06.244Z,19.44
2023-09-07T20:43:35.045Z,19.44
2023-09-07T20:46:06.368Z,19.51
2023-09-07T20:48:34.627Z,19.58
2023-09-07T20:51:05.862Z,19.60
2023-09-07T20:53:34.134Z,19.68
2023-09-07T20:56:02.237Z,19.66
2023-09-07T20:58:30.358Z,19.47
2023-09-07T21:00:58.564Z,19.51
2023-09-07T21:03:26.884Z,19.48
2023-09-07T21:05:54.892Z,19.50
2023-09-07T21:08:22.905Z,19.48
2023-09-07T21:10:51.040Z,19.42
2023-09-07T21:13:19.230Z,19.54
2023-09-07T21:15:47.285Z,19.52
2023-09-07T21:18:15.553Z,19.55
2023-09-07T21:20:43.849Z,19.48
2023-09-07T21:23:12.871Z,19.44
2023-09-07T21:25:40.996Z,19.39
2023-09-07T21:28:09.054Z,19.39
2023-09-07T21:30:37.132Z,19.37
2023-09-07T21:33:05.730Z,19.39
2023-09-07T21:35:34.050Z,19.37
2023-09-07T21:38:02.381Z,19.26
2023-09-07T21:40:30.359Z,19.29
2023-09-07T21:43:00.773Z,18.95
2023-09-07T21:45:29.046Z,18.96
2023-09-07T21:47:57.213Z,19.04
2023-09-07T21:50:26.243Z,19.07
2023-09-07T21:52:54.443Z,19.07
2023-09-07T21:55:22.554Z,18.92
2023-09-07T21:57:50.812Z,19.09
2023-09-07T22:00:18.874Z,19.06
2023-09-07T22:02:47.787Z,19.04
2023-09-07T22:05:16.548Z,18.79
2023-09-07T22:07:45.134Z,18.92
2023-09-07T22:10:13.152Z,18.88
2023-09-07T22:12:41.245Z,18.91
2023-09-07T22:15:09.728Z,18.99
2023-09-07T22:17:40.076Z,18.85
2023-09-07T22:20:08.464Z,18.93
2023-09-07T22:22:36.509Z,18.87
2023-09-07T22:25:05.233Z,18.82
2023-09-07T22:27:33.181Z,18.67
2023-09-07T22:30:01.263Z,18.70
2023-09-07T22:32:29.363Z,18.76
2023-09-07T22:34:57.984Z,18.85
2023-09-07T22:37:25.995Z,18.84
2023-09-07T22:39:54.061Z,18.77
2023-09-07T22:42:22.078Z,18.55
2023-09-07T22:44:50.076Z,18.32
2023-09-07T22:47:18.018Z,18.23
2023-09-07T22:49:46.101Z,18.29
2023-09-07T22:52:14.036Z,18.42
2023-09-07T22:54:42.353Z,18.53
2023-09-07T22:57:10.465Z,18.44
2023-09-07T22:59:39.158Z,18.62
2023-09-07T23:02:08.263Z,18.50
2023-09-07T23:04:36.533Z,18.28
2023-09-07T23:07:05.270Z,18.24
2023-09-07T23:09:33.082Z,18.25
2023-09-07T23:12:01.028Z,18.36
2023-09-07T23:14:31.290Z,18.42
2023-09-07T23:16:59.334Z,18.41
2023-09-07T23:19:27.249Z,18.45
2023-09-07T23:21:55.359Z,18.50
2023-09-07T23:24:23.705Z,18.60
2023-09-07T23:26:51.986Z,18.64
2023-09-07T23:29:20.170Z,18.64
2023-09-07T23:31:48.191Z,18.63
2023-09-07T23:34:16.502Z,18.60
2023-09-07T23:36:44.588Z,18.56
2023-09-07T23:39:12.683Z,18.51
2023-09-07T23:41:40.955Z,18.57
2023-09-07T23:44:09.414Z,18.65
2023-09-07T23:46:37.266Z,18.68
2023-09-07T23:49:05.382Z,18.71
2023-09-07T23:51:33.250Z,18.68
2023-09-07T23:54:01.247Z,18.75
2023-09-07T23:56:29.190Z,18.69
2023-09-07T23:58:57.190Z,18.72
